createdAt,value
2018-01-14T00:00:26.311Z,0
2018-01-14T00:01:07.065Z,0
2018-01-14T00:01:47.442Z,0
2018-01-14T00:03:47.104Z,0
2018-01-14T00:04:27.460Z,0
2018-01-14T00:05:07.850Z,0
2018-01-14T00:05:48.402Z,0
2018-01-14T00:06:28.906Z,0
2018-01-14T00:07:09.477Z,0
2018-01-14T00:09:43.145Z,0
2018-01-14T00:10:23.502Z,0
2018-01-14T00:11:03.942Z,0
2018-01-14T00:11:45.173Z,0
2018-01-14T00:12:25.508Z,0
2018-01-14T00:13:05.910Z,0
2018-01-14T00:13:46.292Z,0
2018-01-14T00:14:26.699Z,0
2018-01-14T00:15:07.192Z,0
2018-01-14T00:15:47.686Z,0
2018-01-14T00:16:28.272Z,0
2018-01-14T00:17:08.494Z,0
2018-01-14T00:17:48.839Z,0
2018-01-14T00:20:01.479Z,0
2018-01-14T00:20:41.990Z,0
2018-01-14T00:21:22.392Z,0
2018-01-14T00:22:02.803Z,0
2018-01-14T00:22:43.286Z,0
2018-01-14T00:25:02.992Z,0
2018-01-14T00:25:43.867Z,0
2018-01-14T00:26:23.980Z,0
2018-01-14T00:27:04.439Z,0
2018-01-14T00:27:45.229Z,0
2018-01-14T00:28:25.613Z,0
2018-01-14T00:29:05.894Z,0
2018-01-14T00:29:46.315Z,0
2018-01-14T00:30:26.920Z,0
2018-01-14T00:31:07.331Z,0
2018-01-14T00:31:48.176Z,0
2018-01-14T00:32:28.439Z,0
2018-01-14T00:33:09.018Z,0
2018-01-14T00:33:49.271Z,0
2018-01-14T00:34:30.327Z,0
2018-01-14T00:35:10.727Z,0
2018-01-14T00:35:51.051Z,0
2018-01-14T00:36:32.232Z,0
2018-01-14T00:37:12.335Z,0
2018-01-14T00:37:52.694Z,0
2018-01-14T00:38:33.324Z,0
2018-01-14T00:39:13.704Z,0
2018-01-14T00:39:54.132Z,0
2018-01-14T00:40:34.612Z,0
2018-01-14T00:41:15.526Z,0
2018-01-14T00:41:55.675Z,0
2018-01-14T00:42:36.245Z,0
2018-01-14T00:43:16.747Z,0
2018-01-14T00:43:57.112Z,0
2018-01-14T00:44:37.452Z,0
2018-01-14T00:45:17.854Z,0
2018-01-14T00:45:58.405Z,0
2018-01-14T00:46:38.634Z,0
2018-01-14T00:47:19.044Z,0
2018-01-14T00:47:59.534Z,0
2018-01-14T00:50:30.456Z,0
2018-01-14T00:51:10.189Z,0
2018-01-14T00:51:50.446Z,0
2018-01-14T00:52:30.783Z,0
2018-01-14T00:53:11.331Z,0
2018-01-14T00:53:54.374Z,0
2018-01-14T00:54:36.585Z,0
2018-01-14T00:55:17.313Z,0
2018-01-14T00:55:57.778Z,0
2018-01-14T00:56:38.220Z,0
2018-01-14T00:57:21.580Z,0
2018-01-14T00:58:02.067Z,0
2018-01-14T00:58:42.418Z,0
2018-01-14T00:59:24.937Z,0
2018-01-14T01:00:05.405Z,0
2018-01-14T01:00:45.669Z,0
2018-01-14T01:01:26.070Z,0
2018-01-14T01:02:06.440Z,0
2018-01-14T01:02:46.878Z,0
2018-01-14T01:03:27.625Z,0
2018-01-14T01:04:07.988Z,0
2018-01-14T01:04:48.371Z,0
2018-01-14T01:05:29.053Z,0
2018-01-14T01:06:09.295Z,0
2018-01-14T01:06:49.693Z,0
2018-01-14T01:07:30.150Z,0
2018-01-14T01:08:12.190Z,0
2018-01-14T01:10:20.369Z,0
2018-01-14T01:11:12.762Z,0
2018-01-14T01:12:05.511Z,0
2018-01-14T01:12:58.741Z,0
2018-01-14T01:13:52.742Z,0
2018-01-14T01:14:44.906Z,0
2018-01-14T01:15:37.724Z,0
2018-01-14T01:16:30.418Z,0
2018-01-14T01:17:22.582Z,0
2018-01-14T01:18:15.809Z,0
2018-01-14T01:19:09.207Z,0
2018-01-14T01:20:01.767Z,0
2018-01-14T01:20:54.464Z,0
2018-01-14T01:21:47.023Z,0
2018-01-14T01:22:39.965Z,0
2018-01-14T01:23:32.101Z,0
2018-01-14T01:24:24.902Z,0
2018-01-14T01:25:23.726Z,0
2018-01-14T01:26:16.718Z,0
2018-01-14T01:27:09.111Z,0
2018-01-14T01:28:03.065Z,0
2018-01-14T01:28:56.620Z,0
2018-01-14T01:29:49.004Z,0
2018-01-14T01:30:41.931Z,0
2018-01-14T01:31:30.285Z,0
2018-01-14T01:32:10.492Z,0
2018-01-14T01:32:50.933Z,0
2018-01-14T01:33:32.397Z,0
2018-01-14T01:34:13.006Z,0
2018-01-14T01:34:53.795Z,0
2018-01-14T01:35:35.799Z,0
2018-01-14T01:36:17.159Z,0
2018-01-14T01:36:57.649Z,0
2018-01-14T01:37:38.350Z,0
2018-01-14T01:38:18.940Z,0
2018-01-14T01:38:59.450Z,0
2018-01-14T01:39:39.831Z,0
2018-01-14T01:40:20.450Z,0
2018-01-14T01:41:00.751Z,0
2018-01-14T01:41:42.201Z,0
2018-01-14T01:42:23.089Z,0
2018-01-14T01:43:06.659Z,0
2018-01-14T01:43:47.341Z,0
2018-01-14T01:44:28.583Z,0
2018-01-14T01:45:09.260Z,0
2018-01-14T01:45:49.891Z,0
2018-01-14T01:46:30.941Z,0
2018-01-14T01:47:11.582Z,0
2018-01-14T01:47:52.887Z,0
2018-01-14T01:48:34.070Z,0
2018-01-14T01:49:16.997Z,0
2018-01-14T01:49:57.401Z,0
2018-01-14T01:50:39.460Z,0
2018-01-14T01:51:21.476Z,0
2018-01-14T01:52:03.551Z,0
2018-01-14T01:52:43.904Z,0
2018-01-14T01:53:25.099Z,0
2018-01-14T01:54:05.814Z,0
2018-01-14T01:54:47.140Z,0
2018-01-14T01:55:28.448Z,0
2018-01-14T01:56:08.784Z,0
2018-01-14T01:56:50.766Z,0
2018-01-14T01:57:30.840Z,0
2018-01-14T01:58:11.494Z,0
2018-01-14T01:58:54.085Z,0
2018-01-14T01:59:34.366Z,0
2018-01-14T02:00:15.881Z,0
2018-01-14T02:02:17.281Z,0
2018-01-14T02:02:57.685Z,0
2018-01-14T02:03:38.165Z,0
2018-01-14T02:04:18.706Z,0
2018-01-14T02:04:59.140Z,0
2018-01-14T02:05:39.500Z,0
2018-01-14T02:06:19.880Z,0
2018-01-14T02:07:00.448Z,0
2018-01-14T02:07:40.858Z,0
2018-01-14T02:08:21.237Z,0
2018-01-14T02:09:01.734Z,0
2018-01-14T02:09:42.032Z,0
2018-01-14T02:10:22.448Z,0
2018-01-14T02:11:03.914Z,0
2018-01-14T02:11:44.316Z,0
2018-01-14T02:12:24.761Z,0
2018-01-14T02:13:05.105Z,0
2018-01-14T02:13:45.669Z,0
2018-01-14T02:14:43.287Z,0
2018-01-14T02:15:25.431Z,0
2018-01-14T02:16:05.831Z,0
2018-01-14T02:16:46.225Z,0
2018-01-14T02:17:28.239Z,0
2018-01-14T02:18:08.822Z,0
2018-01-14T02:18:50.080Z,0
2018-01-14T02:19:30.458Z,0
2018-01-14T02:20:10.897Z,0
2018-01-14T02:20:51.370Z,0
2018-01-14T02:21:31.610Z,0
2018-01-14T02:22:12.170Z,0
2018-01-14T02:22:52.405Z,0
2018-01-14T02:23:32.803Z,0
2018-01-14T02:24:13.227Z,0
2018-01-14T02:24:53.629Z,0
2018-01-14T02:25:34.043Z,0
2018-01-14T02:26:14.492Z,0
2018-01-14T02:26:54.858Z,0
2018-01-14T02:27:35.665Z,0
2018-01-14T02:28:16.072Z,0
2018-01-14T02:28:56.629Z,0
2018-01-14T02:29:37.028Z,0
2018-01-14T02:30:17.413Z,0
2018-01-14T02:30:57.909Z,0
2018-01-14T02:31:38.331Z,0
2018-01-14T02:32:18.757Z,0
2018-01-14T02:32:59.387Z,0
2018-01-14T02:33:39.763Z,0
2018-01-14T02:34:20.173Z,0
2018-01-14T02:35:00.589Z,0
2018-01-14T02:35:41.052Z,0
2018-01-14T02:36:21.490Z,0
2018-01-14T02:37:02.530Z,0
2018-01-14T02:37:42.978Z,0
2018-01-14T02:38:23.346Z,0
2018-01-14T02:39:04.113Z,0
2018-01-14T02:39:44.431Z,0
2018-01-14T02:40:24.951Z,0
2018-01-14T02:41:05.460Z,0
2018-01-14T02:41:45.941Z,0
2018-01-14T02:42:27.309Z,0
2018-01-14T02:43:07.761Z,0
2018-01-14T02:43:49.402Z,0
2018-01-14T02:44:29.516Z,0
2018-01-14T02:45:09.867Z,0
2018-01-14T02:45:50.313Z,0
2018-01-14T02:46:30.706Z,0
2018-01-14T02:47:11.176Z,0
2018-01-14T02:47:51.476Z,0
2018-01-14T02:48:31.909Z,0
2018-01-14T02:49:12.279Z,0
2018-01-14T02:49:52.651Z,0
2018-01-14T02:50:34.800Z,0
2018-01-14T02:51:15.246Z,0
2018-01-14T02:51:55.656Z,0
2018-01-14T02:52:36.709Z,0
2018-01-14T02:53:17.224Z,0
2018-01-14T02:53:57.710Z,0
2018-01-14T02:54:37.951Z,0
2018-01-14T02:55:18.424Z,0
2018-01-14T02:55:58.777Z,0
2018-01-14T02:56:39.204Z,0
2018-01-14T02:57:19.688Z,0
2018-01-14T02:58:00.098Z,0
2018-01-14T02:58:41.121Z,0
2018-01-14T02:59:21.475Z,0
2018-01-14T03:00:01.898Z,0
2018-01-14T03:00:42.234Z,0
2018-01-14T03:01:22.632Z,0
2018-01-14T03:02:03.072Z,0
2018-01-14T03:02:43.504Z,0
2018-01-14T03:03:23.833Z,0
2018-01-14T03:04:04.215Z,0
2018-01-14T03:04:44.628Z,0
2018-01-14T03:05:24.997Z,0
2018-01-14T03:06:05.503Z,0
2018-01-14T03:06:45.937Z,0
2018-01-14T03:07:26.323Z,0
2018-01-14T03:08:06.744Z,0
2018-01-14T03:08:47.227Z,0
2018-01-14T03:09:27.669Z,0
2018-01-14T03:10:08.118Z,0
2018-01-14T03:10:48.707Z,0
2018-01-14T03:11:28.893Z,0
2018-01-14T03:12:09.285Z,0
2018-01-14T03:12:49.669Z,0
2018-01-14T03:13:30.083Z,0
2018-01-14T03:14:10.679Z,0
2018-01-14T03:14:50.856Z,0
2018-01-14T03:15:31.338Z,0
2018-01-14T03:16:11.657Z,0
2018-01-14T03:16:52.119Z,0
2018-01-14T03:17:32.574Z,0
2018-01-14T03:18:12.920Z,0
2018-01-14T03:18:53.272Z,0
2018-01-14T03:19:33.641Z,0
2018-01-14T03:20:14.358Z,0
2018-01-14T03:20:54.777Z,0
2018-01-14T03:21:35.299Z,0
2018-01-14T03:22:15.766Z,0
2018-01-14T03:22:56.094Z,0
2018-01-14T03:23:36.530Z,0
2018-01-14T03:24:16.925Z,0
2018-01-14T03:24:57.318Z,0
2018-01-14T03:25:37.699Z,0
2018-01-14T03:26:18.167Z,0
2018-01-14T03:26:59.416Z,0
2018-01-14T03:27:39.903Z,0
2018-01-14T03:28:20.277Z,0
2018-01-14T03:29:00.646Z,0
2018-01-14T03:29:41.022Z,0
2018-01-14T03:30:23.062Z,0
2018-01-14T03:31:03.503Z,0
2018-01-14T03:31:44.848Z,0
2018-01-14T03:32:25.409Z,0
2018-01-14T03:33:05.986Z,0
2018-01-14T03:33:46.231Z,0
2018-01-14T03:34:26.630Z,0
2018-01-14T03:35:07.030Z,0
2018-01-14T03:35:47.540Z,0
2018-01-14T03:36:27.937Z,0
2018-01-14T03:37:08.410Z,0
2018-01-14T03:37:48.768Z,0
2018-01-14T03:38:29.218Z,0
2018-01-14T03:39:10.405Z,0
2018-01-14T03:39:50.958Z,0
2018-01-14T03:40:31.390Z,0
2018-01-14T03:41:11.624Z,0
2018-01-14T03:41:52.033Z,0
2018-01-14T03:42:32.448Z,0
2018-01-14T03:43:12.779Z,0
2018-01-14T03:43:54.129Z,0
2018-01-14T03:44:34.475Z,0
2018-01-14T03:45:14.863Z,0
2018-01-14T03:45:55.272Z,0
2018-01-14T03:46:35.915Z,0
2018-01-14T03:47:16.076Z,0
2018-01-14T03:47:57.404Z,0
2018-01-14T03:48:37.840Z,0
2018-01-14T03:49:18.245Z,0
2018-01-14T03:49:58.796Z,0
2018-01-14T03:50:39.047Z,0
2018-01-14T03:51:20.260Z,0
2018-01-14T03:52:00.670Z,0
2018-01-14T03:52:41.118Z,0
2018-01-14T03:53:21.472Z,0
2018-01-14T03:54:01.908Z,0
2018-01-14T03:54:42.270Z,0
2018-01-14T03:55:22.689Z,0
2018-01-14T03:56:03.054Z,0
2018-01-14T03:56:43.489Z,0
2018-01-14T03:57:23.877Z,0
2018-01-14T03:58:04.283Z,0
2018-01-14T03:58:45.637Z,0
2018-01-14T03:59:26.002Z,0
2018-01-14T04:00:06.438Z,0
2018-01-14T04:00:48.246Z,0
2018-01-14T04:01:28.638Z,0
2018-01-14T04:41:51.406Z,0
2018-01-14T04:42:31.782Z,0
2018-01-14T04:43:12.535Z,0
2018-01-14T04:43:52.791Z,0
2018-01-14T04:44:33.185Z,0
2018-01-14T04:45:13.602Z,0
2018-01-14T04:45:54.383Z,0
2018-01-14T04:46:34.683Z,0
2018-01-14T04:47:15.032Z,0
2018-01-14T04:47:55.435Z,0
2018-01-14T04:48:35.810Z,0
2018-01-14T04:49:16.293Z,0
2018-01-14T04:49:56.663Z,0
2018-01-14T04:50:37.011Z,0
2018-01-14T04:51:17.477Z,0
2018-01-14T04:51:57.921Z,0
2018-01-14T04:52:38.345Z,0
2018-01-14T04:53:18.685Z,0
2018-01-14T04:53:59.114Z,0
2018-01-14T04:54:39.626Z,0
2018-01-14T04:55:19.912Z,0
2018-01-14T04:56:00.341Z,0
2018-01-14T04:56:40.742Z,0
2018-01-14T04:57:21.101Z,0
2018-01-14T04:58:01.514Z,0
2018-01-14T04:58:42.243Z,0
2018-01-14T04:59:22.601Z,0
2018-01-14T05:00:03.052Z,0
2018-01-14T05:00:43.403Z,0
2018-01-14T05:01:23.778Z,0
2018-01-14T05:02:04.158Z,0
2018-01-14T05:02:44.807Z,0
2018-01-14T05:03:25.144Z,0
2018-01-14T05:04:05.499Z,0
2018-01-14T05:04:45.913Z,0
2018-01-14T05:05:26.298Z,0
2018-01-14T05:06:06.722Z,0
2018-01-14T05:06:47.133Z,0
2018-01-14T05:07:27.564Z,0
2018-01-14T05:08:07.908Z,0
2018-01-14T05:08:48.329Z,0
2018-01-14T05:09:28.729Z,0
2018-01-14T05:10:09.121Z,0
2018-01-14T05:10:49.513Z,0
2018-01-14T05:11:29.984Z,0
2018-01-14T05:12:10.380Z,0
2018-01-14T05:12:50.899Z,0
2018-01-14T05:13:31.314Z,0
2018-01-14T05:14:11.700Z,0
2018-01-14T05:14:52.172Z,0
2018-01-14T05:15:32.484Z,0
2018-01-14T05:16:13.076Z,0
2018-01-14T05:16:53.413Z,0
2018-01-14T05:17:33.878Z,0
2018-01-14T05:18:14.225Z,0
2018-01-14T05:18:54.634Z,0
2018-01-14T05:19:35.138Z,0
2018-01-14T05:20:15.434Z,0
2018-01-14T05:20:56.468Z,0
2018-01-14T05:21:36.664Z,0
2018-01-14T05:22:17.133Z,0
2018-01-14T05:22:57.486Z,0
2018-01-14T05:23:37.920Z,0
2018-01-14T05:24:18.321Z,0
2018-01-14T05:24:58.706Z,0
2018-01-14T05:25:39.110Z,0
2018-01-14T05:26:19.588Z,0
2018-01-14T05:26:59.951Z,0
2018-01-14T05:27:40.315Z,0
2018-01-14T05:28:20.736Z,0
2018-01-14T05:29:01.081Z,0
2018-01-14T05:29:41.498Z,0
2018-01-14T05:30:21.878Z,0
2018-01-14T05:31:02.369Z,0
2018-01-14T05:35:09.930Z,0
2018-01-14T05:35:50.383Z,0
2018-01-14T05:36:30.762Z,0
2018-01-14T05:37:11.168Z,0
2018-01-14T05:37:51.636Z,0
2018-01-14T05:38:31.980Z,0
2018-01-14T05:39:12.389Z,0
2018-01-14T05:39:52.844Z,0
2018-01-14T05:40:33.309Z,0
2018-01-14T05:41:13.682Z,0
2018-01-14T05:41:54.213Z,0
2018-01-14T05:42:34.680Z,0
2018-01-14T05:43:15.023Z,0
2018-01-14T05:43:55.663Z,0
2018-01-14T05:44:36.062Z,0
2018-01-14T05:45:16.434Z,0
2018-01-14T05:45:56.887Z,0
2018-01-14T05:46:37.446Z,0
2018-01-14T05:47:17.845Z,0
2018-01-14T05:47:58.210Z,0
2018-01-14T05:48:38.611Z,0
2018-01-14T05:49:18.974Z,0
2018-01-14T05:49:59.363Z,0
2018-01-14T05:50:40.084Z,0
2018-01-14T05:51:20.600Z,0
2018-01-14T05:52:01.258Z,0
2018-01-14T05:52:41.619Z,0
2018-01-14T05:53:22.021Z,0
2018-01-14T05:54:02.759Z,0
2018-01-14T05:54:43.025Z,0
2018-01-14T05:55:23.407Z,0
2018-01-14T05:56:03.833Z,0
2018-01-14T05:56:44.191Z,0
2018-01-14T05:57:24.648Z,0
2018-01-14T05:58:04.987Z,0
2018-01-14T05:58:45.401Z,0
2018-01-14T05:59:26.023Z,0
2018-01-14T06:00:06.421Z,0
2018-01-14T06:00:46.908Z,0
2018-01-14T06:01:27.269Z,0
2018-01-14T06:02:07.686Z,0
2018-01-14T06:02:48.257Z,0
2018-01-14T06:03:28.637Z,0
2018-01-14T06:04:09.196Z,0
2018-01-14T06:04:49.549Z,0
2018-01-14T06:05:29.957Z,0
2018-01-14T06:06:10.409Z,0
2018-01-14T06:06:50.767Z,0
2018-01-14T06:07:31.178Z,0
2018-01-14T06:08:11.895Z,0
2018-01-14T06:08:52.356Z,0
2018-01-14T06:09:33.010Z,0
2018-01-14T06:10:13.381Z,0
2018-01-14T06:10:53.752Z,0
2018-01-14T06:11:34.198Z,0
2018-01-14T06:12:14.991Z,0
2018-01-14T06:12:55.382Z,0
2018-01-14T06:13:35.853Z,0
2018-01-14T06:14:16.238Z,0
2018-01-14T06:14:57.217Z,0
2018-01-14T06:15:37.080Z,0
2018-01-14T06:16:17.468Z,0
2018-01-14T06:16:57.860Z,0
2018-01-14T06:17:38.243Z,0
2018-01-14T06:18:18.655Z,0
2018-01-14T06:18:59.098Z,0
2018-01-14T06:19:39.487Z,0
2018-01-14T06:20:20.330Z,0
2018-01-14T06:21:00.814Z,0
2018-01-14T06:21:41.327Z,0
2018-01-14T06:22:21.697Z,0
2018-01-14T06:23:02.034Z,0
2018-01-14T06:23:42.445Z,0
2018-01-14T06:24:23.001Z,0
2018-01-14T06:25:03.359Z,0
2018-01-14T06:25:43.779Z,0
2018-01-14T06:26:24.182Z,0
2018-01-14T06:27:04.565Z,0
2018-01-14T06:27:45.130Z,0
2018-01-14T06:28:25.541Z,0
2018-01-14T06:29:05.976Z,0
2018-01-14T06:29:46.404Z,0
2018-01-14T06:32:21.248Z,0
2018-01-14T06:33:01.692Z,0
2018-01-14T06:33:41.871Z,0
2018-01-14T06:34:22.289Z,0
2018-01-14T06:35:03.001Z,0
2018-01-14T06:35:43.376Z,0
2018-01-14T06:36:23.758Z,0
2018-01-14T06:37:04.284Z,0
2018-01-14T06:39:25.867Z,0
2018-01-14T06:40:05.724Z,0
2018-01-14T06:40:45.953Z,0
2018-01-14T06:41:26.366Z,0
2018-01-14T06:42:06.757Z,0
2018-01-14T06:42:47.184Z,0
2018-01-14T06:43:27.906Z,0
2018-01-14T06:44:08.411Z,0
2018-01-14T06:44:48.825Z,0
2018-01-14T06:45:29.247Z,0
2018-01-14T06:46:09.557Z,0
2018-01-14T06:46:49.949Z,0
2018-01-14T06:47:30.412Z,0
2018-01-14T06:48:10.756Z,0
2018-01-14T06:48:51.136Z,0
2018-01-14T06:49:31.570Z,0
2018-01-14T06:50:11.920Z,0
2018-01-14T06:50:52.333Z,0
2018-01-14T06:51:32.888Z,0
2018-01-14T06:52:13.253Z,0
2018-01-14T06:52:54.051Z,0
2018-01-14T06:53:34.469Z,0
2018-01-14T06:54:14.912Z,0
2018-01-14T06:54:55.318Z,0
2018-01-14T06:55:35.778Z,0
2018-01-14T06:56:16.214Z,0
2018-01-14T06:56:56.511Z,0
2018-01-14T06:57:36.917Z,0
2018-01-14T06:58:17.292Z,0
2018-01-14T06:58:57.982Z,0
2018-01-14T06:59:38.333Z,0
2018-01-14T07:00:18.705Z,0
2018-01-14T07:00:59.105Z,0
2018-01-14T07:01:39.776Z,0
2018-01-14T07:02:19.957Z,0
2018-01-14T07:03:00.386Z,0
2018-01-14T07:03:40.807Z,0
2018-01-14T07:04:21.215Z,0
2018-01-14T07:05:01.602Z,0
2018-01-14T07:05:42.054Z,0
2018-01-14T07:06:22.455Z,0
2018-01-14T07:07:02.886Z,0
2018-01-14T07:07:43.274Z,0
2018-01-14T07:08:23.677Z,4
2018-01-14T07:09:04.710Z,4
2018-01-14T07:09:45.394Z,4
2018-01-14T07:10:25.639Z,4
2018-01-14T07:11:06.059Z,4
2018-01-14T07:11:46.644Z,0
2018-01-14T07:12:27.009Z,0
2018-01-14T07:13:07.883Z,0
2018-01-14T07:17:00.960Z,4
2018-01-14T07:17:41.384Z,4
2018-01-14T07:18:21.734Z,8
2018-01-14T07:19:02.120Z,4
2018-01-14T07:19:42.602Z,4
2018-01-14T07:20:22.911Z,4
2018-01-14T07:21:04.281Z,8
2018-01-14T07:21:44.725Z,8
2018-01-14T07:22:25.318Z,8
2018-01-14T07:23:05.588Z,8
2018-01-14T07:23:45.957Z,8
2018-01-14T07:24:26.471Z,8
2018-01-14T07:25:06.836Z,12
2018-01-14T07:25:47.463Z,12
2018-01-14T07:26:27.924Z,12
2018-01-14T07:27:08.341Z,12
2018-01-14T07:27:48.825Z,12
2018-01-14T07:28:30.356Z,16
2018-01-14T07:29:10.703Z,12
2018-01-14T07:29:51.120Z,16
2018-01-14T07:30:31.549Z,16
2018-01-14T07:31:12.108Z,16
2018-01-14T07:31:52.366Z,16
2018-01-14T07:32:33.142Z,20
2018-01-14T07:33:13.536Z,20
2018-01-14T07:33:53.866Z,24
2018-01-14T07:34:34.291Z,24
2018-01-14T07:35:14.712Z,24
2018-01-14T07:35:55.147Z,28
2018-01-14T07:36:35.523Z,28
2018-01-14T07:37:16.076Z,32
2018-01-14T07:37:56.419Z,32
2018-01-14T07:38:36.937Z,32
2018-01-14T07:39:17.274Z,36
2018-01-14T07:39:57.726Z,36
2018-01-14T07:40:38.090Z,36
2018-01-14T07:41:18.519Z,40
2018-01-14T07:41:58.903Z,40
2018-01-14T07:42:39.485Z,40
2018-01-14T07:43:19.746Z,40
2018-01-14T07:44:00.302Z,40
2018-01-14T07:44:40.602Z,40
2018-01-14T07:45:20.966Z,44
2018-01-14T07:46:01.335Z,44
2018-01-14T07:46:41.729Z,48
2018-01-14T07:47:22.148Z,48
2018-01-14T07:48:02.541Z,52
2018-01-14T07:48:43.065Z,52
2018-01-14T07:49:23.408Z,56
2018-01-14T07:50:03.829Z,52
2018-01-14T07:50:44.233Z,60
2018-01-14T07:51:24.642Z,60
2018-01-14T07:52:05.058Z,60
2018-01-14T07:52:45.496Z,64
2018-01-14T07:53:25.932Z,60
2018-01-14T07:54:06.338Z,72
2018-01-14T07:54:46.736Z,76
2018-01-14T07:55:27.165Z,72
2018-01-14T07:56:07.577Z,72
2018-01-14T07:56:48.011Z,72
2018-01-14T07:57:28.361Z,76
2018-01-14T07:58:08.743Z,76
2018-01-14T07:58:49.389Z,80
2018-01-14T07:59:29.794Z,80
2018-01-14T08:00:10.174Z,80
2018-01-14T08:00:50.624Z,84
2018-01-14T08:01:30.995Z,84
2018-01-14T08:02:11.374Z,88
2018-01-14T08:02:51.780Z,92
2018-01-14T08:03:32.173Z,96
2018-01-14T08:04:12.621Z,96
2018-01-14T08:04:52.961Z,96
2018-01-14T08:05:33.960Z,100
2018-01-14T08:06:14.385Z,108
2018-01-14T08:06:54.823Z,112
2018-01-14T08:07:35.588Z,112
2018-01-14T08:08:15.895Z,112
2018-01-14T08:10:46.166Z,124
2018-01-14T08:11:38.211Z,128
2018-01-14T08:12:37.198Z,124
2018-01-14T08:13:31.981Z,128
2018-01-14T08:14:24.363Z,140
2018-01-14T08:15:16.570Z,144
2018-01-14T08:16:09.491Z,144
2018-01-14T08:17:01.884Z,152
2018-01-14T08:17:54.031Z,156
2018-01-14T08:18:40.996Z,160
2018-01-14T08:19:21.231Z,164
2018-01-14T08:20:01.742Z,168
2018-01-14T08:20:42.450Z,168
2018-01-14T08:21:23.162Z,180
2018-01-14T08:22:05.065Z,192
2018-01-14T08:22:45.694Z,192
2018-01-14T08:23:26.533Z,188
2018-01-14T08:24:06.920Z,204
2018-01-14T08:24:49.866Z,216
2018-01-14T08:25:31.077Z,220
2018-01-14T08:26:11.476Z,228
2018-01-14T08:26:52.820Z,252
2018-01-14T08:27:33.430Z,240
2018-01-14T08:28:13.808Z,256
2018-01-14T08:28:56.263Z,264
2018-01-14T08:29:36.691Z,260
2018-01-14T08:30:16.973Z,296
2018-01-14T08:30:57.353Z,292
2018-01-14T08:31:40.686Z,304
2018-01-14T08:32:23.323Z,320
2018-01-14T08:33:06.882Z,316
2018-01-14T08:33:47.372Z,308
2018-01-14T08:34:29.159Z,320
2018-01-14T08:35:10.204Z,304
2018-01-14T08:35:50.688Z,304
2018-01-14T08:36:33.731Z,304
2018-01-14T08:37:15.127Z,300
2018-01-14T08:37:55.500Z,292
2018-01-14T08:38:36.046Z,304
2018-01-14T08:39:17.507Z,292
2018-01-14T08:39:57.943Z,296
2018-01-14T08:40:38.541Z,292
2018-01-14T08:41:18.888Z,292
2018-01-14T08:41:59.364Z,308
2018-01-14T08:42:40.522Z,316
2018-01-14T08:43:22.180Z,328
2018-01-14T08:44:02.634Z,340
2018-01-14T08:44:43.084Z,348
2018-01-14T08:45:23.607Z,384
2018-01-14T08:46:04.071Z,404
2018-01-14T08:46:44.739Z,412
2018-01-14T08:47:26.708Z,432
2018-01-14T08:48:07.214Z,456
2018-01-14T08:48:48.074Z,464
2018-01-14T08:49:29.162Z,460
2018-01-14T08:50:09.644Z,484
2018-01-14T08:50:51.908Z,516
2018-01-14T08:51:33.320Z,560
2018-01-14T08:52:14.187Z,572
2018-01-14T08:52:54.444Z,564
2018-01-14T08:53:35.873Z,564
2018-01-14T08:54:16.280Z,560
2018-01-14T08:54:56.707Z,564
2018-01-14T08:55:37.196Z,568
2018-01-14T08:56:18.286Z,552
2018-01-14T08:56:59.036Z,544
2018-01-14T08:57:39.238Z,552
2018-01-14T08:58:20.706Z,548
2018-01-14T08:59:03.634Z,528
2018-01-14T08:59:44.496Z,528
2018-01-14T09:00:24.943Z,524
2018-01-14T09:01:06.241Z,524
2018-01-14T09:01:46.850Z,508
2018-01-14T09:02:27.414Z,524
2018-01-14T09:03:07.693Z,500
2018-01-14T09:03:48.223Z,500
2018-01-14T09:04:29.399Z,480
2018-01-14T09:05:09.832Z,488
2018-01-14T09:05:50.443Z,508
2018-01-14T09:06:30.871Z,524
2018-01-14T09:07:11.244Z,508
2018-01-14T09:07:51.829Z,508
2018-01-14T09:08:32.270Z,496
2018-01-14T09:09:12.841Z,508
2018-01-14T09:09:53.228Z,500
2018-01-14T09:10:33.587Z,512
2018-01-14T09:11:14.270Z,508
2018-01-14T09:11:54.593Z,508
2018-01-14T09:12:35.144Z,516
2018-01-14T09:13:15.426Z,540
2018-01-14T09:13:55.934Z,552
2018-01-14T09:14:36.355Z,548
2018-01-14T09:15:16.785Z,532
2018-01-14T09:15:58.020Z,536
2018-01-14T09:16:38.661Z,540
2018-01-14T09:17:19.390Z,524
2018-01-14T09:17:59.437Z,560
2018-01-14T09:18:39.985Z,552
2018-01-14T09:19:20.492Z,576
2018-01-14T09:20:00.890Z,596
2018-01-14T09:20:41.329Z,640
2018-01-14T09:21:21.676Z,704
2018-01-14T09:22:02.744Z,660
2018-01-14T09:22:44.167Z,668
2018-01-14T09:23:24.528Z,688
2018-01-14T09:24:05.126Z,668
2018-01-14T09:24:45.559Z,692
2018-01-14T09:25:25.987Z,696
2018-01-14T09:26:06.410Z,712
2018-01-14T09:26:47.626Z,708
2018-01-14T09:27:30.261Z,704
2018-01-14T09:28:10.659Z,680
2018-01-14T09:28:52.558Z,736
2018-01-14T09:29:35.013Z,764
2018-01-14T09:30:15.672Z,764
2018-01-14T09:30:55.894Z,780
2018-01-14T09:31:36.206Z,756
2018-01-14T09:32:18.734Z,768
2018-01-14T09:32:59.716Z,772
2018-01-14T09:33:39.942Z,788
2018-01-14T09:34:21.047Z,796
2018-01-14T09:35:01.493Z,824
2018-01-14T09:35:42.362Z,836
2018-01-14T09:36:22.696Z,804
2018-01-14T09:37:04.269Z,812
2018-01-14T09:37:44.969Z,776
2018-01-14T09:38:25.445Z,812
2018-01-14T09:39:06.144Z,788
2018-01-14T09:39:46.902Z,816
2018-01-14T09:40:27.444Z,840
2018-01-14T09:41:08.776Z,856
2018-01-14T09:41:49.254Z,824
2018-01-14T09:42:30.376Z,832
2018-01-14T09:43:10.738Z,828
2018-01-14T09:43:51.220Z,824
2018-01-14T09:44:31.582Z,824
2018-01-14T09:45:14.663Z,844
2018-01-14T09:45:55.278Z,804
2018-01-14T09:46:35.726Z,812
2018-01-14T09:47:16.354Z,796
2018-01-14T09:47:56.714Z,816
2018-01-14T09:48:37.106Z,812
2018-01-14T09:49:17.465Z,828
2018-01-14T09:49:57.895Z,836
2018-01-14T09:50:38.285Z,860
2018-01-14T09:51:18.616Z,856
2018-01-14T09:51:59.012Z,876
2018-01-14T09:52:39.399Z,908
2018-01-14T09:53:19.899Z,928
2018-01-14T09:54:00.277Z,924
2018-01-14T09:54:40.738Z,944
2018-01-14T09:55:21.230Z,932
2018-01-14T09:56:01.746Z,948
2018-01-14T09:56:42.909Z,956
2018-01-14T09:57:23.414Z,964
2018-01-14T09:58:03.872Z,952
2018-01-14T09:58:44.346Z,916
2018-01-14T09:59:24.742Z,956
2018-01-14T10:00:05.105Z,964
2018-01-14T10:00:45.636Z,944
2018-01-14T10:01:26.974Z,900
2018-01-14T10:02:08.169Z,928
2018-01-14T10:02:48.902Z,940
2018-01-14T10:03:29.399Z,972
2018-01-14T10:42:23.176Z,944
2018-01-14T10:43:03.551Z,932
2018-01-14T10:43:43.841Z,1012
2018-01-14T10:44:24.352Z,1024
2018-01-14T10:45:05.445Z,1028
2018-01-14T10:45:45.772Z,1004
2018-01-14T10:46:26.159Z,1008
2018-01-14T10:47:06.886Z,1032
2018-01-14T10:47:47.200Z,1004
2018-01-14T10:48:29.068Z,1000
2018-01-14T10:49:09.493Z,988
2018-01-14T10:49:49.979Z,1000
2018-01-14T10:50:30.430Z,968
2018-01-14T10:51:11.079Z,964
2018-01-14T10:51:51.455Z,996
2018-01-14T10:52:31.903Z,984
2018-01-14T10:55:02.541Z,996
2018-01-14T10:55:43.137Z,1048
2018-01-14T10:56:23.807Z,1020
2018-01-14T10:57:04.376Z,1000
2018-01-14T10:57:44.689Z,1008
2018-01-14T10:58:25.092Z,1012
2018-01-14T10:59:05.593Z,1040
2018-01-14T10:59:46.436Z,1016
2018-01-14T11:00:27.303Z,1068
2018-01-14T11:01:07.727Z,1088
2018-01-14T11:01:48.346Z,1004
2018-01-14T11:02:28.648Z,1064
2018-01-14T11:03:09.187Z,1064
2018-01-14T11:03:49.781Z,1060
2018-01-14T11:04:30.174Z,1036
2018-01-14T11:05:10.612Z,1048
2018-01-14T11:05:51.076Z,1028
2018-01-14T11:06:31.476Z,1032
2018-01-14T11:07:11.845Z,1008
2018-01-14T11:07:52.496Z,1016
2018-01-14T11:08:32.735Z,992
2018-01-14T11:11:07.683Z,1048
2018-01-14T11:11:59.994Z,1024
2018-01-14T11:12:52.893Z,1004
2018-01-14T11:13:45.280Z,1028
2018-01-14T11:14:37.392Z,1036
2018-01-14T11:15:29.813Z,1028
2018-01-14T11:16:21.865Z,1004
2018-01-14T11:17:14.930Z,1008
2018-01-14T11:18:09.476Z,1072
2018-01-14T11:19:02.132Z,1032
2018-01-14T11:19:54.111Z,996
2018-01-14T11:20:46.410Z,984
2018-01-14T11:23:34.990Z,996
2018-01-14T11:24:27.906Z,976
2018-01-14T11:25:21.807Z,1020
2018-01-14T11:26:15.047Z,1000
2018-01-14T11:27:09.063Z,980
2018-01-14T11:28:01.029Z,1004
2018-01-14T11:28:54.324Z,928
2018-01-14T11:29:46.561Z,920
2018-01-14T11:30:41.046Z,940
2018-01-14T11:31:33.515Z,948
2018-01-14T11:32:23.183Z,976
2018-01-14T11:33:03.763Z,984
2018-01-14T11:33:44.669Z,976
2018-01-14T11:34:25.363Z,956
2018-01-14T11:35:05.868Z,992
2018-01-14T11:35:46.479Z,1016
2018-01-14T11:36:26.867Z,1008
2018-01-14T11:37:07.436Z,964
2018-01-14T11:37:48.282Z,992
2018-01-14T11:38:28.730Z,988
2018-01-14T11:39:09.103Z,1020
2018-01-14T11:39:50.636Z,1036
2018-01-14T11:40:34.166Z,1040
2018-01-14T11:41:16.688Z,1024
2018-01-14T11:41:57.221Z,1040
2018-01-14T11:42:37.768Z,1072
2018-01-14T11:43:18.828Z,1084